Time;durP1;ratioP1;P1;durP2;ratioP2;P2;SDS_P1;SDS_P2;PMS_P1;PMS_P2;Temp;Humidity;BMP_temperature;BMP_pressure;BME280_temperature;BME280_humidity;BME280_pressure;Samples;Min_cycle;Max_cycle;Signal;HPM_P1;HPM_P2
2022/06/26 00:01:45;;;;;;;3.22;2.17;;;17.30;99.90;;;;;;5038778;28;20033;-87
2022/06/26 00:04:11;;;;;;;2.35;2.10;;;17.40;99.90;;;;;;5046335;28;20025;-86
2022/06/26 00:06:37;;;;;;;7.03;2.22;;;17.30;99.90;;;;;;5046252;28;20490;-86
2022/06/26 00:09:04;;;;;;;2.95;2.60;;;17.20;99.90;;;;;;5046492;28;20032;-86
2022/06/26 00:11:30;;;;;;;2.75;2.55;;;17.20;99.90;;;;;;5030241;28;20037;-86
2022/06/26 00:13:55;;;;;;;2.45;2.15;;;17.20;99.90;;;;;;5045872;28;20029;-86
2022/06/26 00:16:21;;;;;;;3.80;2.13;;;17.20;99.90;;;;;;5030366;28;20446;-87
2022/06/26 00:18:48;;;;;;;4.68;2.40;;;17.10;99.90;;;;;;5045921;28;20037;-86
2022/06/26 00:21:14;;;;;;;3.65;2.35;;;17.00;99.90;;;;;;5046659;28;20029;-87
2022/06/26 00:23:42;;;;;;;6.30;3.03;;;17.00;99.90;;;;;;5045980;28;20034;-86
2022/06/26 00:26:08;;;;;;;4.50;2.80;;;17.00;99.90;;;;;;5026383;28;20456;-86
2022/06/26 00:28:33;;;;;;;7.13;2.45;;;16.90;99.90;;;;;;5047428;28;20088;-87
2022/06/26 00:31:01;;;;;;;3.10;2.72;;;16.80;99.90;;;;;;5045751;28;20033;-86
2022/06/26 00:33:27;;;;;;;7.32;3.22;;;16.80;99.90;;;;;;5045252;28;20038;-86
2022/06/26 00:35:53;;;;;;;5.60;2.13;;;17.00;99.90;;;;;;5042285;28;20041;-85
2022/06/26 00:38:21;;;;;;;3.60;2.03;;;17.10;99.90;;;;;;5042273;28;20042;-86
2022/06/26 00:40:47;;;;;;;2.13;1.92;;;17.30;99.90;;;;;;5016473;28;20064;-86
2022/06/26 00:43:13;;;;;;;2.75;2.20;;;17.40;99.90;;;;;;5044796;28;20048;-86
2022/06/26 00:45:39;;;;;;;5.18;1.80;;;17.50;99.90;;;;;;5043357;28;20034;-86
2022/06/26 00:48:05;;;;;;;6.32;2.15;;;17.60;99.90;;;;;;5041343;28;20037;-86
2022/06/26 00:50:30;;;;;;;7.28;2.17;;;17.80;99.90;;;;;;5026506;28;20076;-86
2022/06/26 00:53:05;;;;;;;3.33;2.28;;;17.90;99.90;;;;;;5024627;28;20045;-87
2022/06/26 00:55:31;;;;;;;2.97;2.33;;;18.10;99.90;;;;;;5030092;28;20245;-86
2022/06/26 00:57:56;;;;;;;5.47;3.13;;;18.20;99.90;;;;;;5046939;28;20029;-85
2022/06/26 01:00:22;;;;;;;3.28;2.47;;;18.20;99.90;;;;;;5043712;28;20021;-86
2022/06/26 01:02:48;;;;;;;2.70;2.47;;;18.10;99.90;;;;;;5027851;28;20390;-87
2022/06/26 01:05:14;;;;;;;4.32;2.53;;;18.10;99.90;;;;;;5046052;28;20033;-86
2022/06/26 01:07:40;;;;;;;6.68;2.75;;;18.00;99.90;;;;;;5046360;28;20036;-87
2022/06/26 01:10:06;;;;;;;8.18;2.78;;;17.90;99.90;;;;;;5030975;28;20116;-86
2022/06/26 01:12:32;;;;;;;10.65;2.72;;;17.90;99.90;;;;;;5045745;28;20036;-86
2022/06/26 01:15:04;;;;;;;6.63;2.75;;;17.80;99.90;;;;;;5029469;28;20061;-86
2022/06/26 01:17:30;;;;;;;3.17;2.88;;;17.70;99.90;;;;;;5045878;28;20111;-86
2022/06/26 01:19:57;;;;;;;4.57;2.45;;;17.70;99.90;;;;;;5046115;28;20068;-86
2022/06/26 01:22:26;;;;;;;3.25;2.40;;;17.70;99.90;;;;;;5046348;28;20021;-86
2022/06/26 01:24:52;;;;;;;5.13;2.78;;;17.80;99.90;;;;;;5045851;28;20030;-86
2022/06/26 01:27:18;;;;;;;4.82;2.88;;;17.70;99.90;;;;;;5045252;28;20038;-86
2022/06/26 01:29:44;;;;;;;8.15;3.08;;;17.60;99.90;;;;;;5029515;28;20072;-85
2022/06/26 01:32:09;;;;;;;3.15;2.72;;;17.60;99.90;;;;;;5046059;28;20033;-87
2022/06/26 01:34:36;;;;;;;4.40;3.28;;;17.50;99.90;;;;;;5045551;28;20037;-86
2022/06/26 01:37:04;;;;;;;7.68;3.35;;;17.50;99.90;;;;;;5029093;28;20044;-86
2022/06/26 01:39:30;;;;;;;5.90;3.60;;;17.50;99.90;;;;;;5046021;28;20033;-86
2022/06/26 01:41:57;;;;;;;4.55;4.00;;;17.40;99.90;;;;;;5044974;28;20096;-86
2022/06/26 01:44:23;;;;;;;5.50;3.97;;;17.40;99.90;;;;;;5044959;28;20045;-87
2022/06/26 01:46:49;;;;;;;8.80;3.83;;;17.30;99.90;;;;;;5045326;28;20025;-84
2022/06/26 01:49:17;;;;;;;7.25;3.95;;;17.20;99.90;;;;;;5044919;28;20095;-86
2022/06/26 01:51:44;;;;;;;4.30;3.85;;;17.10;99.90;;;;;;5045362;28;20029;-85
2022/06/26 01:54:10;;;;;;;6.53;4.68;;;17.10;99.90;;;;;;5046229;28;20520;-86
2022/06/26 01:56:37;;;;;;;9.20;5.13;;;17.10;99.90;;;;;;5045715;28;20418;-86
2022/06/26 01:59:02;;;;;;;8.27;5.03;;;17.00;99.90;;;;;;5045865;28;20030;-85
2022/06/26 02:01:35;;;;;;;7.40;4.80;;;17.00;99.90;;;;;;5045183;28;20041;-86
2022/06/26 02:04:02;;;;;;;8.13;5.07;;;17.00;99.90;;;;;;5060060;28;20025;-85
2022/06/26 02:06:29;;;;;;;10.35;5.75;;;16.90;99.90;;;;;;5047886;28;20057;-85
2022/06/26 02:08:55;;;;;;;7.55;5.57;;;16.90;99.90;;;;;;5046968;28;20076;-85
2022/06/26 02:14:09;;;;;;;14.00;5.45;;;16.80;99.90;;;;;;5049531;28;20037;-85
2022/06/26 02:16:53;;;;;;;9.05;5.72;;;16.60;99.90;;;;;;5047809;28;20022;-85
2022/06/26 02:19:19;;;;;;;7.78;6.10;;;16.50;99.90;;;;;;5049414;28;20507;-85
2022/06/26 02:21:45;;;;;;;10.82;5.90;;;16.50;99.90;;;;;;5049292;28;20061;-86
2022/06/26 02:24:10;;;;;;;7.30;6.00;;;16.40;99.90;;;;;;5048970;28;20037;-86
2022/06/26 02:26:36;;;;;;;9.75;6.00;;;16.50;99.90;;;;;;5049013;28;20033;-86
2022/06/26 02:29:06;;;;;;;9.48;6.38;;;16.50;99.90;;;;;;5048422;28;20079;-86
2022/06/26 02:31:32;;;;;;;6.53;5.82;;;16.50;99.90;;;;;;5048868;28;20030;-85
2022/06/26 02:33:58;;;;;;;10.57;6.38;;;16.50;99.90;;;;;;5048941;28;20037;-86
2022/06/26 02:36:24;;;;;;;6.03;5.43;;;16.50;99.90;;;;;;5049630;28;20048;-86
2022/06/26 02:38:50;;;;;;;8.95;5.25;;;16.40;99.90;;;;;;5034269;28;20033;-86
2022/06/26 02:41:15;;;;;;;6.72;5.97;;;16.40;99.90;;;;;;5049370;28;20034;-85
2022/06/26 02:43:45;;;;;;;6.53;5.50;;;16.40;99.90;;;;;;5047839;28;20029;-86
2022/06/26 02:46:11;;;;;;;9.18;6.38;;;16.50;99.90;;;;;;5047936;28;20103;-86
2022/06/26 02:48:37;;;;;;;6.60;5.57;;;16.50;99.90;;;;;;5048200;28;20049;-86
2022/06/26 02:51:05;;;;;;;329.52;165.50;;;16.60;99.90;;;;;;5048412;28;20037;-86
2022/06/26 02:53:32;;;;;;;94.50;48.25;;;16.60;99.90;;;;;;5047939;28;20033;-86
2022/06/26 02:55:58;;;;;;;14.07;7.32;;;16.50;99.90;;;;;;5048651;28;20029;-87
2022/06/26 02:58:26;;;;;;;8.23;6.88;;;16.40;99.90;;;;;;5031587;28;20681;-86
2022/06/26 03:00:55;;;;;;;8.27;6.90;;;16.40;99.90;;;;;;5048274;28;20035;-85
2022/06/26 03:03:22;;;;;;;10.15;6.80;;;16.30;99.90;;;;;;5048041;28;20106;-86
2022/06/26 03:05:48;;;;;;;7.03;6.28;;;16.30;99.90;;;;;;5048126;28;20116;-86
2022/06/26 03:08:13;;;;;;;10.82;7.15;;;16.20;99.90;;;;;;5048471;28;20096;-86
2022/06/26 03:10:44;;;;;;;14.98;6.40;;;16.10;99.90;;;;;;5048340;28;20034;-86
2022/06/26 03:13:09;;;;;;;10.52;6.30;;;16.10;99.90;;;;;;5048098;28;20466;-86
2022/06/26 03:15:35;;;;;;;7.30;6.00;;;16.10;99.90;;;;;;5048413;28;20068;-86
2022/06/26 03:18:02;;;;;;;12.52;7.40;;;16.10;99.90;;;;;;5047758;28;20055;-85
2022/06/26 03:20:29;;;;;;;10.30;6.50;;;16.10;99.90;;;;;;5047621;28;20022;-86
2022/06/26 03:22:55;;;;;;;8.93;6.18;;;16.10;99.90;;;;;;5012490;28;20085;-86
2022/06/26 03:25:21;;;;;;;9.57;6.50;;;16.10;99.90;;;;;;5031663;28;20067;-87
2022/06/26 03:27:49;;;;;;;11.13;7.15;;;16.10;99.90;;;;;;5031364;28;20037;-87
2022/06/26 03:30:15;;;;;;;14.07;6.63;;;16.10;99.90;;;;;;5031245;28;20079;-86
2022/06/26 03:32:47;;;;;;;10.27;6.93;;;16.10;99.90;;;;;;5031853;28;20189;-87
2022/06/26 03:35:12;;;;;;;9.55;6.55;;;16.00;99.90;;;;;;5031425;28;20060;-87
2022/06/26 03:37:39;;;;;;;7.25;6.32;;;15.90;99.90;;;;;;5031148;28;20030;-85
2022/06/26 03:40:08;;;;;;;9.63;6.32;;;15.90;99.90;;;;;;5031118;28;20057;-87
2022/06/26 03:42:34;;;;;;;11.93;7.07;;;15.90;99.90;;;;;;5031298;28;20026;-86
2022/06/26 03:45:00;;;;;;;14.20;6.95;;;15.90;99.90;;;;;;5030662;28;20033;-85
2022/06/26 03:47:26;;;;;;;8.30;6.35;;;15.90;99.90;;;;;;5031157;28;20036;-86
2022/06/26 03:50:01;;;;;;;8.52;6.35;;;15.90;99.90;;;;;;5030943;28;20064;-86
2022/06/26 03:52:30;;;;;;;8.48;5.63;;;16.00;99.90;;;;;;5030883;28;20532;-86
2022/06/26 03:54:59;;;;;;;8.45;5.95;;;16.00;99.90;;;;;;5030626;28;20033;-86
2022/06/26 03:57:24;;;;;;;10.77;5.40;;;16.10;99.90;;;;;;5030710;28;20029;-86
2022/06/26 03:59:57;;;;;;;6.55;4.90;;;16.20;99.90;;;;;;5030778;28;20037;-86
2022/06/26 04:02:30;;;;;;;6.80;5.07;;;16.30;99.90;;;;;;5030612;28;20034;-85
2022/06/26 04:04:56;;;;;;;5.28;4.57;;;16.40;99.90;;;;;;5030311;28;20079;-86
2022/06/26 04:07:23;;;;;;;8.50;4.75;;;16.50;99.90;;;;;;5030929;28;20453;-86
2022/06/26 04:09:58;;;;;;;7.30;4.43;;;16.60;99.90;;;;;;5043643;28;20038;-88
2022/06/26 04:12:24;;;;;;;7.63;4.53;;;16.70;99.90;;;;;;5044890;28;20093;-86
2022/06/26 04:14:51;;;;;;;5.18;4.43;;;16.70;99.90;;;;;;5042981;28;20033;-86
2022/06/26 04:17:17;;;;;;;7.10;4.68;;;16.80;99.90;;;;;;5045657;28;20037;-86
2022/06/26 04:19:54;;;;;;;6.00;4.20;;;16.90;99.90;;;;;;5047933;28;20552;-86
2022/06/26 04:22:20;;;;;;;4.40;3.72;;;16.80;99.90;;;;;;5062864;28;20030;-86
2022/06/26 04:24:46;;;;;;;4.32;3.92;;;16.80;99.90;;;;;;5046405;28;20025;-87
2022/06/26 04:27:11;;;;;;;4.75;4.22;;;16.80;99.90;;;;;;5045651;28;20036;-86
2022/06/26 04:29:37;;;;;;;4.63;4.13;;;16.80;99.90;;;;;;5043964;28;20063;-86
2022/06/26 04:32:03;;;;;;;5.47;4.20;;;16.80;99.90;;;;;;5031356;28;20506;-86
2022/06/26 04:34:37;;;;;;;4.22;3.65;;;17.00;99.90;;;;;;5033514;28;20041;-86
2022/06/26 04:37:05;;;;;;;6.07;3.78;;;17.10;99.90;;;;;;5031227;28;20025;-86
2022/06/26 04:39:31;;;;;;;7.95;4.03;;;17.40;99.90;;;;;;5031434;28;20140;-86
2022/06/26 04:42:00;;;;;;;3.83;3.45;;;17.60;99.90;;;;;;5031062;28;20026;-86
2022/06/26 04:44:28;;;;;;;4.40;3.13;;;17.80;99.90;;;;;;5030831;28;20036;-86
2022/06/26 04:46:56;;;;;;;4.95;3.88;;;18.00;99.90;;;;;;5014658;28;20032;-86
2022/06/26 04:49:27;;;;;;;5.50;3.63;;;18.10;99.90;;;;;;5030269;28;20486;-86
2022/06/26 04:51:53;;;;;;;4.70;4.13;;;18.20;99.90;;;;;;5030319;28;20095;-86
2022/06/26 04:54:36;;;;;;;5.90;3.95;;;18.30;99.90;;;;;;5030012;28;20785;-86
2022/06/26 04:57:04;;;;;;;4.18;3.42;;;18.40;99.90;;;;;;5030112;28;20033;-86
2022/06/26 04:59:30;;;;;;;7.57;3.30;;;18.40;99.90;;;;;;5030343;28;20124;-86
2022/06/26 05:02:05;;;;;;;5.05;3.65;;;18.50;99.90;;;;;;5030082;28;20029;-86
2022/06/26 05:05:04;;;;;;;;;;;18.50;99.90;;;;;;5024990;28;20040;-86
2022/06/26 05:07:42;;;;;;;4.90;3.95;;;18.50;99.90;;;;;;5029794;28;19916;-86
2022/06/26 05:10:08;;;;;;;9.70;4.45;;;18.40;99.90;;;;;;5029293;28;20037;-85
2022/06/26 05:12:47;;;;;;;4.90;4.50;;;18.30;99.90;;;;;;5029110;28;20068;-85
2022/06/26 05:15:28;;;;;;;;;;;18.20;99.90;;;;;;5030487;28;20029;-86
2022/06/26 05:17:54;;;;;;;8.63;5.88;;;18.10;99.90;;;;;;5012943;28;20015;-86
2022/06/26 05:20:20;;;;;;;7.68;5.88;;;17.90;99.90;;;;;;5046820;28;20029;-86
2022/06/26 05:22:50;;;;;;;8.52;5.70;;;17.70;99.90;;;;;;5046155;28;20494;-92
2022/06/26 05:25:17;;;;;;;8.98;5.72;;;17.60;99.90;;;;;;5048072;28;20037;-85
2022/06/26 05:27:44;;;;;;;8.60;6.28;;;17.50;99.90;;;;;;5047256;28;20037;-85
2022/06/26 05:30:11;;;;;;;7.10;6.40;;;17.40;99.90;;;;;;5045488;28;20083;-85
2022/06/26 05:32:39;;;;;;;14.77;6.63;;;17.30;99.90;;;;;;5002080;28;20063;-86
2022/06/26 05:35:13;;;;;;;7.80;6.53;;;17.20;99.90;;;;;;5020482;28;20026;-85
2022/06/26 05:37:39;;;;;;;10.98;7.15;;;17.20;99.90;;;;;;5041214;28;20022;-84
2022/06/26 05:40:06;;;;;;;8.60;6.45;;;17.20;99.90;;;;;;5004676;28;20120;-85
2022/06/26 05:42:36;;;;;;;11.23;7.55;;;17.20;99.90;;;;;;5026816;28;20021;-85
2022/06/26 05:45:02;;;;;;;8.05;7.25;;;17.20;99.90;;;;;;5035211;28;20029;-85
2022/06/26 05:47:29;;;;;;;7.07;6.00;;;17.20;99.90;;;;;;5029894;28;20026;-86
2022/06/26 05:50:15;;;;;;;8.07;5.50;;;17.30;99.90;;;;;;5032841;28;20029;-84
2022/06/26 05:52:59;;;;;;;8.23;6.15;;;17.40;99.90;;;;;;5024002;28;20631;-86
2022/06/26 05:55:45;;;;;;;9.48;6.65;;;17.40;99.90;;;;;;5014968;28;20037;-85
2022/06/26 05:58:35;;;;;;;7.18;5.90;;;17.50;99.90;;;;;;5018700;28;20025;-85
2022/06/26 06:01:38;;;;;;;8.73;5.22;;;17.60;99.90;;;;;;5029052;28;20060;-85
2022/06/26 06:04:10;;;;;;;10.45;5.53;;;17.70;99.90;;;;;;5014298;28;20478;-85
2022/06/26 06:06:36;;;;;;;7.47;5.40;;;17.80;99.90;;;;;;5012681;28;20040;-85
2022/06/26 06:09:05;;;;;;;8.52;5.70;;;17.90;99.90;;;;;;5010800;28;20091;-85
2022/06/26 06:11:31;;;;;;;6.13;4.82;;;18.00;99.90;;;;;;5032932;28;21455;-85
2022/06/26 06:13:57;;;;;;;8.77;5.05;;;18.10;99.90;;;;;;5045399;28;20040;-86
2022/06/26 06:16:24;;;;;;;7.47;4.88;;;18.10;99.90;;;;;;5046491;28;20025;-84
2022/06/26 06:18:50;;;;;;;5.35;4.35;;;18.20;99.90;;;;;;5036815;28;20045;-85
2022/06/26 06:21:16;;;;;;;6.38;4.35;;;18.50;99.90;;;;;;5048211;28;20029;-85
2022/06/26 06:23:43;;;;;;;7.10;4.28;;;18.90;99.90;;;;;;5049557;28;20025;-85
2022/06/26 06:26:12;;;;;;;4.78;4.25;;;19.20;99.90;;;;;;5049419;28;20026;-85
2022/06/26 06:28:38;;;;;;;7.15;4.60;;;19.30;99.90;;;;;;5045510;28;20117;-85
2022/06/26 06:31:07;;;;;;;5.53;4.35;;;19.50;99.90;;;;;;5045323;28;20056;-85
2022/06/26 06:33:32;;;;;;;6.28;4.15;;;19.60;99.90;;;;;;5015148;28;20067;-85
2022/06/26 06:35:58;;;;;;;4.97;4.10;;;19.60;99.90;;;;;;5029495;28;20030;-86
2022/06/26 06:38:27;;;;;;;6.00;4.68;;;19.60;99.90;;;;;;5045595;28;20087;-85
2022/06/26 06:40:58;;;;;;;4.90;4.07;;;19.70;99.90;;;;;;5043288;28;20044;-85
2022/06/26 06:43:32;;;;;;;8.00;4.03;;;19.70;99.90;;;;;;5033592;28;20083;-85
2022/06/26 06:46:16;;;;;;;11.13;4.28;;;19.60;99.90;;;;;;5044123;28;20706;-84
2022/06/26 06:48:54;;;;;;;6.97;3.92;;;19.40;99.90;;;;;;5038392;28;20556;-84
2022/06/26 06:51:40;;;;;;;7.15;4.30;;;19.10;99.90;;;;;;5008778;28;20312;-85
2022/06/26 06:54:06;;;;;;;4.55;4.10;;;18.90;99.90;;;;;;5049512;28;20037;-84
2022/06/26 06:56:32;;;;;;;5.97;4.00;;;18.90;99.90;;;;;;5032029;28;20029;-84
2022/06/26 06:59:00;;;;;;;4.55;3.75;;;18.90;99.90;;;;;;5048900;28;20116;-84
2022/06/26 07:01:26;;;;;;;5.55;3.65;;;18.90;99.90;;;;;;5029452;28;20057;-85
2022/06/26 07:03:52;;;;;;;4.57;3.17;;;18.90;99.90;;;;;;5029139;28;20018;-85
2022/06/26 07:06:17;;;;;;;4.63;2.78;;;18.90;99.90;;;;;;5029048;28;20030;-85
2022/06/26 07:08:43;;;;;;;3.47;3.10;;;19.00;99.90;;;;;;5045930;28;20590;-84
2022/06/26 07:11:09;;;;;;;5.43;2.83;;;19.10;99.90;;;;;;5045342;28;20034;-81
2022/06/26 07:13:34;;;;;;;7.30;3.15;;;20.00;99.90;;;;;;5029105;28;20073;-83
2022/06/26 07:16:01;;;;;;;3.05;2.40;;;21.10;99.90;;;;;;5027970;28;20402;-85
2022/06/26 07:18:28;;;;;;;4.05;2.70;;;22.30;99.90;;;;;;5027864;28;20120;-86
2022/06/26 07:20:54;;;;;;;5.18;2.70;;;23.20;99.90;;;;;;5028452;28;20028;-85
2022/06/26 07:23:23;;;;;;;4.60;2.55;;;24.10;99.90;;;;;;5011784;28;20069;-85
2022/06/26 07:25:58;;;;;;;4.47;2.92;;;24.70;99.90;;;;;;5028862;28;20030;-85
2022/06/26 07:28:34;;;;;;;4.32;2.92;;;24.80;99.90;;;;;;5026138;28;20447;-85
2022/06/26 07:31:00;;;;;;;2.92;2.50;;;24.90;99.90;;;;;;5027629;28;20038;-85
2022/06/26 07:36:12;;;;;;;2.70;2.50;;;25.90;99.90;;;;;;5026845;28;20605;-86
2022/06/26 07:38:38;;;;;;;4.15;2.80;;;26.30;99.90;;;;;;5026217;28;20491;-86
2022/06/26 07:41:04;;;;;;;4.60;2.90;;;26.60;99.90;;;;;;5026393;28;20088;-85
2022/06/26 07:43:29;;;;;;;5.78;2.85;;;26.20;99.90;;;;;;5027034;28;20026;-85
2022/06/26 07:45:57;;;;;;;3.55;3.00;;;25.40;99.90;;;;;;5011045;28;20112;-86
2022/06/26 07:48:23;;;;;;;3.25;2.58;;;23.90;99.90;;;;;;5027341;28;20033;-85
2022/06/26 07:50:53;;;;;;;5.13;3.00;;;22.60;99.90;;;;;;5027286;28;20041;-85
2022/06/26 07:53:20;;;;;;;5.55;3.35;;;21.90;99.90;;;;;;5026718;28;20029;-84
2022/06/26 07:55:45;;;;;;;4.40;3.25;;;21.50;99.90;;;;;;5027102;28;20049;-86
2022/06/26 07:58:11;;;;;;;4.75;3.92;;;21.00;99.90;;;;;;5010255;28;20034;-86
2022/06/26 08:00:37;;;;;;;3.35;2.95;;;20.90;99.90;;;;;;5026855;28;20029;-86
2022/06/26 08:03:04;;;;;;;4.28;2.97;;;21.90;99.90;;;;;;5026672;28;20414;-85
2022/06/26 08:05:30;;;;;;;4.80;2.50;;;23.50;99.90;;;;;;5009848;28;20034;-85
2022/06/26 08:07:56;;;;;;;3.30;2.75;;;25.00;99.90;;;;;;5026249;28;20060;-86
2022/06/26 08:10:22;;;;;;;3.58;2.50;;;26.10;99.90;;;;;;5032311;28;20030;-87
2022/06/26 08:12:47;;;;;;;3.22;2.22;;;27.40;99.90;;;;;;5030342;28;20106;-85
2022/06/26 08:15:13;;;;;;;2.75;2.35;;;28.00;99.90;;;;;;5029924;28;20037;-86
2022/06/26 08:17:39;;;;;;;5.70;1.88;;;28.50;99.90;;;;;;5030164;28;20046;-85
2022/06/26 08:20:08;;;;;;;3.22;2.00;;;28.80;99.90;;;;;;5046425;28;20076;-85
2022/06/26 08:22:34;;;;;;;3.05;2.00;;;28.60;99.90;;;;;;5029499;28;20029;-85
2022/06/26 08:24:59;;;;;;;4.35;2.17;;;29.00;99.90;;;;;;5029135;28;20033;-85
2022/06/26 08:27:25;;;;;;;2.20;2.00;;;29.60;99.90;;;;;;5029284;28;20037;-85
2022/06/26 08:29:51;;;;;;;2.78;1.92;;;29.60;99.90;;;;;;5030692;28;20065;-87
2022/06/26 08:32:16;;;;;;;3.42;2.17;;;29.70;99.90;;;;;;5031807;28;20029;-85
2022/06/26 08:34:42;;;;;;;1.60;1.50;;;29.70;99.90;;;;;;5047914;28;20075;-85
2022/06/26 08:37:08;;;;;;;4.35;1.58;;;29.50;99.90;;;;;;5047663;28;20118;-85
2022/06/26 08:39:35;;;;;;;2.83;1.90;;;29.20;99.90;;;;;;5047368;28;20471;-84
2022/06/26 08:42:04;;;;;;;2.15;1.60;;;28.70;99.90;;;;;;5029694;28;20033;-85
2022/06/26 08:44:31;;;;;;;4.82;1.90;;;28.50;99.90;;;;;;5046536;28;20083;-85
2022/06/26 08:46:58;;;;;;;2.25;2.05;;;28.80;99.90;;;;;;5031722;28;20061;-84
2022/06/26 08:49:24;;;;;;;2.85;1.80;;;28.90;99.90;;;;;;5048425;28;20037;-85
2022/06/26 08:51:52;;;;;;;1.40;1.30;;;28.80;99.90;;;;;;5031711;28;20029;-85
2022/06/26 08:54:19;;;;;;;2.42;1.75;;;28.90;99.90;;;;;;5047021;28;20386;-85
2022/06/26 08:56:48;;;;;;;2.13;1.90;;;29.20;99.90;;;;;;5032185;28;20041;-85
2022/06/26 08:59:18;;;;;;;4.70;1.95;;;29.70;99.90;;;;;;5047201;28;20037;-86
2022/06/26 09:01:44;;;;;;;2.10;1.90;;;30.30;99.90;;;;;;5047202;28;20033;-86
2022/06/26 09:04:11;;;;;;;3.97;1.65;;;30.40;99.90;;;;;;5046154;28;20132;-85
2022/06/26 09:06:38;;;;;;;2.58;1.98;;;30.70;98.90;;;;;;5046644;28;20026;-86
2022/06/26 09:09:24;;;;;;;2.45;1.60;;;30.10;99.20;;;;;;5046817;28;20044;-86
2022/06/26 09:11:56;;;;;;;5.60;1.40;;;30.40;98.20;;;;;;5031672;28;20048;-89
2022/06/26 09:14:23;;;;;;;1.80;1.70;;;30.40;96.70;;;;;;5044137;28;20038;-86
2022/06/26 09:16:51;;;;;;;6.95;2.20;;;30.60;96.40;;;;;;5026625;28;20030;-86
2022/06/26 09:19:24;;;;;;;2.67;1.92;;;30.50;98.00;;;;;;5020663;28;20157;-87
2022/06/26 09:21:52;;;;;;;4.22;1.80;;;30.90;97.20;;;;;;5013246;28;20100;-87
2022/06/26 09:24:20;;;;;;;3.45;1.85;;;31.20;96.50;;;;;;5043444;28;20072;-86
2022/06/26 09:27:10;;;;;;;4.43;1.90;;;31.50;95.90;;;;;;5028996;28;20030;-87
2022/06/26 09:29:36;;;;;;;2.80;2.13;;;32.10;94.60;;;;;;5050871;28;20556;-86
2022/06/26 09:32:17;;;;;;;2.03;1.55;;;32.10;94.70;;;;;;5041300;28;20168;-86
2022/06/26 09:34:51;;;;;;;1.83;1.55;;;32.20;94.80;;;;;;5012227;28;20406;-87
2022/06/26 09:37:28;;;;;;;2.55;1.67;;;32.30;93.50;;;;;;5008996;28;20149;-85
2022/06/26 09:40:01;;;;;;;1.77;1.60;;;32.50;91.20;;;;;;5025593;28;20091;-87
2022/06/26 09:42:27;;;;;;;1.85;1.70;;;31.60;91.50;;;;;;5047558;28;20021;-87
2022/06/26 09:44:54;;;;;;;1.48;1.38;;;31.70;90.70;;;;;;5023306;28;20049;-88
2022/06/26 09:47:28;;;;;;;3.13;1.70;;;31.70;92.40;;;;;;5014462;28;20647;-87
2022/06/26 09:49:58;;;;;;;3.10;1.35;;;32.00;91.30;;;;;;5031809;28;20703;-86
2022/06/26 09:52:27;;;;;;;2.35;1.50;;;32.50;90.10;;;;;;5049350;28;20033;-87
2022/06/26 09:54:54;;;;;;;3.42;1.60;;;32.80;90.60;;;;;;5031285;28;20041;-86
2022/06/26 09:57:28;;;;;;;3.50;1.50;;;32.50;91.00;;;;;;5047312;28;20128;-86
2022/06/26 09:59:55;;;;;;;2.85;1.92;;;31.80;91.20;;;;;;5032244;28;20045;-87
2022/06/26 10:07:57;;;;;;;4.28;1.50;;;27.40;96.30;;;;;;5032388;28;20025;-87
2022/06/26 10:10:24;;;;;;;3.25;1.95;;;27.80;96.10;;;;;;5026116;28;20314;-87
2022/06/26 10:12:55;;;;;;;2.05;1.55;;;29.10;95.30;;;;;;5015761;28;20029;-86
2022/06/26 10:15:32;;;;;;;1.60;1.50;;;30.10;94.30;;;;;;5033675;28;20075;-86
2022/06/26 10:18:22;;;;;;;1.88;1.52;;;30.60;93.10;;;;;;5018432;28;20064;-87
2022/06/26 10:20:54;;;;;;;1.70;1.60;;;30.10;92.20;;;;;;5013093;28;20029;-87
2022/06/26 10:23:31;;;;;;;1.58;1.48;;;30.00;93.00;;;;;;5037186;28;20116;-87
2022/06/26 10:25:56;;;;;;;5.15;1.50;;;29.70;93.10;;;;;;5014399;28;20497;-87
2022/06/26 10:28:24;;;;;;;1.77;1.27;;;29.30;92.90;;;;;;5046447;28;20034;-87
2022/06/26 10:30:53;;;;;;;2.05;1.85;;;29.40;92.90;;;;;;5014171;28;20020;-88
2022/06/26 10:33:20;;;;;;;1.90;1.73;;;29.60;93.50;;;;;;5029612;28;20037;-88
2022/06/26 10:35:49;;;;;;;2.03;1.83;;;29.30;93.90;;;;;;5032855;28;20095;-85
2022/06/26 10:38:26;;;;;;;1.95;1.58;;;29.10;92.60;;;;;;5028335;28;20768;-87
2022/06/26 10:44:12;;;;;;;1.50;1.40;;;29.50;93.20;;;;;;5027744;28;20082;-87
2022/06/26 10:46:47;;;;;;;1.95;1.42;;;29.80;91.90;;;;;;5027329;28;20026;-87
2022/06/26 10:49:13;;;;;;;2.92;1.48;;;30.10;92.30;;;;;;5029715;28;20035;-87
2022/06/26 10:51:41;;;;;;;1.88;1.50;;;29.60;93.20;;;;;;5017353;28;20647;-86
2022/06/26 10:54:21;;;;;;;2.38;1.48;;;28.90;93.20;;;;;;5047923;28;20036;-87
2022/06/26 10:56:54;;;;;;;1.73;1.40;;;29.00;94.70;;;;;;5014415;28;20421;-87
2022/06/26 10:59:22;;;;;;;1.50;1.30;;;29.50;94.40;;;;;;5031025;28;20037;-87
2022/06/26 11:01:51;;;;;;;1.27;1.17;;;29.90;94.30;;;;;;5029020;28;20490;-87
2022/06/26 11:04:16;;;;;;;1.83;1.40;;;30.00;92.50;;;;;;5043544;28;20040;-87
2022/06/26 11:06:42;;;;;;;3.60;1.60;;;29.80;91.60;;;;;;5047092;28;20021;-88
2022/06/26 11:09:09;;;;;;;3.40;1.40;;;30.10;91.90;;;;;;5046891;28;20553;-89
2022/06/26 11:11:35;;;;;;;1.58;1.20;;;29.70;92.30;;;;;;5043243;28;20041;-87
2022/06/26 11:14:10;;;;;;;1.20;1.13;;;28.50;92.30;;;;;;5025571;28;20029;-87
2022/06/26 11:16:38;;;;;;;2.65;1.40;;;28.00;94.40;;;;;;5030711;28;20029;-86
2022/06/26 11:19:06;;;;;;;2.17;1.50;;;27.40;94.60;;;;;;5047921;28;20045;-86
2022/06/26 11:21:33;;;;;;;7.47;1.35;;;27.30;96.10;;;;;;5047875;28;20021;-86
2022/06/26 11:24:00;;;;;;;1.38;1.27;;;27.10;94.80;;;;;;5047812;28;20037;-87
2022/06/26 11:26:35;;;;;;;1.63;1.52;;;27.20;95.00;;;;;;5031361;28;20561;-86
2022/06/26 11:29:04;;;;;;;2.88;1.50;;;27.70;95.10;;;;;;5045974;28;20128;-86
2022/06/26 11:31:31;;;;;;;1.50;1.30;;;28.50;95.10;;;;;;5029614;28;20090;-87
2022/06/26 11:34:14;;;;;;;1.25;1.15;;;28.80;93.90;;;;;;5029151;28;20041;-87
2022/06/26 11:36:56;;;;;;;1.73;1.20;;;29.30;94.20;;;;;;5023181;28;20160;-88
2022/06/26 11:39:41;;;;;;;1.85;1.40;;;29.30;94.00;;;;;;5022377;28;20061;-87
2022/06/26 11:42:24;;;;;;;1.55;1.20;;;29.70;92.70;;;;;;5021467;28;20486;-87
2022/06/26 11:44:52;;;;;;;1.33;1.17;;;30.40;92.10;;;;;;5027490;28;20032;-87
2022/06/26 11:47:19;;;;;;;1.75;1.48;;;30.90;91.50;;;;;;5028969;28;20033;-89
2022/06/26 11:49:46;;;;;;;1.20;1.10;;;30.80;89.90;;;;;;5031241;28;20083;-87
2022/06/26 11:52:16;;;;;;;1.35;1.25;;;30.70;90.50;;;;;;5044900;28;20052;-88
2022/06/26 11:54:43;;;;;;;4.38;1.50;;;30.60;91.60;;;;;;5021119;28;20038;-87
2022/06/26 11:57:09;;;;;;;1.33;1.23;;;29.90;91.00;;;;;;5036579;28;20071;-86
2022/06/26 11:59:43;;;;;;;1.40;1.27;;;29.90;91.50;;;;;;5034936;28;20034;-86
2022/06/26 12:02:23;;;;;;;2.10;1.30;;;30.20;90.70;;;;;;5026716;28;20071;-86
2022/06/26 12:05:07;;;;;;;1.45;1.27;;;30.60;90.70;;;;;;5046281;28;20029;-87
2022/06/26 12:07:47;;;;;;;5.13;1.77;;;30.50;90.80;;;;;;5028186;28;20572;-87
2022/06/26 12:10:25;;;;;;;1.48;1.25;;;30.40;91.80;;;;;;5014541;28;20087;-87
2022/06/26 12:12:52;;;;;;;1.45;1.35;;;30.10;90.60;;;;;;5028625;28;20375;-87
2022/06/26 12:15:18;;;;;;;1.17;1.08;;;29.70;90.30;;;;;;5042342;28;20033;-87
2022/06/26 12:18:00;;;;;;;1.58;1.30;;;29.70;90.80;;;;;;5016729;28;20489;-87
2022/06/26 12:20:33;;;;;;;2.20;1.20;;;29.30;90.60;;;;;;5029407;28;20033;-88
2022/06/26 12:22:59;;;;;;;2.28;1.10;;;29.70;90.60;;;;;;5023687;28;20048;-86
2022/06/26 12:25:39;;;;;;;10.73;7.40;;;29.80;90.30;;;;;;5025436;28;20117;-89
2022/06/26 12:28:06;;;;;;;5.80;2.88;;;30.20;89.70;;;;;;5019156;28;20041;-87
2022/06/26 12:30:39;;;;;;;7.78;3.28;;;30.60;90.20;;;;;;5028719;28;20040;-87
2022/06/26 12:33:07;;;;;;;1.20;1.10;;;30.90;88.60;;;;;;5029814;28;20097;-87
2022/06/26 12:35:36;;;;;;;2.28;1.95;;;30.90;88.00;;;;;;5013412;28;20479;-88
2022/06/26 12:38:03;;;;;;;3.72;1.30;;;30.60;88.30;;;;;;5021447;28;20080;-88
2022/06/26 12:40:32;;;;;;;1.55;1.20;;;30.70;88.50;;;;;;5027764;28;20029;-88
2022/06/26 12:42:58;;;;;;;2.25;1.40;;;30.40;90.30;;;;;;5015159;28;20042;-89
2022/06/26 12:45:25;;;;;;;1.38;1.13;;;30.00;90.20;;;;;;5011871;28;20049;-87
2022/06/26 12:47:53;;;;;;;2.40;1.27;;;30.40;90.20;;;;;;5026293;28;20037;-89
2022/06/26 12:50:21;;;;;;;5.35;1.10;;;31.40;90.00;;;;;;5019572;28;20044;-88
2022/06/26 12:52:46;;;;;;;3.45;1.20;;;31.40;86.60;;;;;;5011046;28;20037;-87
2022/06/26 12:55:13;;;;;;;2.15;1.10;;;30.80;90.00;;;;;;5028783;28;20034;-86
2022/06/26 12:57:39;;;;;;;1.55;1.23;;;30.30;86.80;;;;;;5041489;28;20044;-87
2022/06/26 13:00:06;;;;;;;1.70;1.30;;;30.10;87.40;;;;;;5027046;28;20025;-87
2022/06/26 13:02:35;;;;;;;1.35;1.15;;;29.70;89.60;;;;;;5026897;28;20033;-87
2022/06/26 13:05:01;;;;;;;1.67;1.27;;;30.70;87.60;;;;;;5004815;28;20445;-87
2022/06/26 13:07:27;;;;;;;1.38;1.20;;;31.60;86.70;;;;;;5013728;28;20093;-86
2022/06/26 13:09:53;;;;;;;1.27;1.17;;;31.90;84.80;;;;;;5046182;28;20118;-87